Alamogordo, New Mexico
Current Conditions -  °F | °C
As of 12:35 PM on Sunday 21 Dec 2014 (Local Time) from KALM Reporting Station
Clear Clear  
Wind Chill: 54°   Ceiling: Unl
Heat Index: 54°   Visibility: 10mi
Dew Point: 28°   Wind: 5mph
Humidity: 38%   Direction: 250°WSW
Pressure: 29.97"   Gusts: NA
Location:  32.9°N, 105.96°W
Report Text: KALM 211935Z AUTO 25004KT 10SM CLR 12/M02 A2997 RMK AO2
Loading
Personal Weather Stations






























Interactive Weather Map New forecast layout! Learn more

10-Day Weather Forecast

Advertisements
Track Severe Weather on mobile